Time;durP1;ratioP1;P1;durP2;ratioP2;P2;SDS_P1;SDS_P2;PMS_P1;PMS_P2;Temp;Humidity;BMP_temperature;BMP_pressure;BME280_temperature;BME280_humidity;BME280_pressure;Samples;Min_cycle;Max_cycle;Signal;HPM_P1;HPM_P2
2023/02/21 02:14:41;;;;;;;3.50;0.70;;;;;;;;;;106809;1278;22505;-77
2023/02/21 02:17:19;;;;;;;1.80;0.60;;;;;;;;;;106981;1278;22534;-77
2023/02/21 02:20:30;;;;;;;4.30;0.60;;;;;;;;;;107045;1264;24174;-80
2023/02/21 02:23:01;;;;;;;2.10;0.50;;;;;;;;;;106977;1278;22581;-82
2023/02/21 02:26:33;;;;;;;2.70;0.50;;;;;;;;;;107041;1278;22697;-86
2023/02/21 02:32:06;;;;;;;3.40;0.70;;;;;;;;;;107050;1262;24322;-80
2023/02/21 02:35:05;;;;;;;;;;;;;;;;;;;;;
2023/02/21 02:38:13;;;;;;;1.60;0.50;;;;;;;;;;107023;1278;24445;-78
2023/02/21 02:41:19;;;;;;;1.90;0.40;;;;;;;;;;107056;1278;22531;-77
2023/02/21 02:44:24;;;;;;;1.90;0.50;;;;;;;;;;106870;1278;24196;-81
2023/02/21 02:47:02;;;;;;;1.50;0.40;;;;;;;;;;106462;1284;22542;-80
2023/02/21 02:49:34;;;;;;;1.60;0.40;;;;;;;;;;106603;1284;25250;-79
2023/02/21 02:52:08;;;;;;;1.70;0.40;;;;;;;;;;106551;1267;24213;-79
2023/02/21 02:54:35;;;;;;;1.50;0.40;;;;;;;;;;106611;1284;22553;-80
2023/02/21 02:57:09;;;;;;;1.70;0.30;;;;;;;;;;106425;1284;22541;-79
2023/02/21 02:59:46;;;;;;;2.30;0.60;;;;;;;;;;106476;1284;24176;-81
2023/02/21 03:02:33;;;;;;;1.40;0.50;;;;;;;;;;106606;1268;25345;-82
2023/02/21 03:05:11;;;;;;;1.70;0.50;;;;;;;;;;106520;1282;25426;-80
2023/02/21 03:07:58;;;;;;;2.60;0.50;;;;;;;;;;106496;1282;22596;-78
2023/02/21 03:10:34;;;;;;;3.00;0.60;;;;;;;;;;106654;1282;22506;-80
2023/02/21 03:13:42;;;;;;;1.30;0.30;;;;;;;;;;106631;1265;26087;-78
2023/02/21 03:16:28;;;;;;;0.90;0.30;;;;;;;;;;106790;1259;22543;-82
2023/02/21 03:19:29;;;;;;;1.50;0.30;;;;;;;;;;106672;1282;22540;-80
2023/02/21 03:22:04;;;;;;;1.60;0.50;;;;;;;;;;106895;1269;25334;-78
2023/02/21 03:24:55;;;;;;;1.50;0.50;;;;;;;;;;107226;1272;22530;-79
2023/02/21 03:30:50;;;;;;;1.90;0.50;;;;;;;;;;107080;1275;22664;-82
2023/02/21 03:33:37;;;;;;;1.40;0.50;;;;;;;;;;107370;1256;22661;-84
2023/02/21 03:36:45;;;;;;;2.40;0.80;;;;;;;;;;107328;1275;22602;-81
2023/02/21 03:39:26;;;;;;;2.90;1.10;;;;;;;;;;106967;1275;22780;-77
2023/02/21 03:42:09;;;;;;;4.60;0.90;;;;;;;;;;107020;1269;25141;-78
2023/02/21 03:45:06;;;;;;;4.60;0.80;;;;;;;;;;106946;1276;24184;-84
2023/02/21 03:47:36;;;;;;;5.20;0.90;;;;;;;;;;107168;1275;22531;-78
2023/02/21 03:50:33;;;;;;;;;;;;;;;;;;;;;
2023/02/21 03:53:41;;;;;;;3.60;1.00;;;;;;;;;;107094;1256;25287;-82
2023/02/21 03:56:21;;;;;;;;;;;;;;;;;;;;;
2023/02/21 03:59:25;;;;;;;2.80;0.90;;;;;;;;;;107095;1276;25535;-77
2023/02/21 04:02:10;;;;;;;2.80;0.90;;;;;;;;;;107054;1260;22528;-79
2023/02/21 04:04:58;;;;;;;4.10;1.20;;;;;;;;;;107013;1275;24261;-82
2023/02/21 04:08:30;;;;;;;4.00;1.10;;;;;;;;;;107173;1275;25298;-79
2023/02/21 04:11:22;;;;;;;;;;;;;;;;;;;;;
2023/02/21 04:14:14;;;;;;;;;;;;;;;;;;;;;
2023/02/21 04:17:29;;;;;;;5.30;1.20;;;;;;;;;;106977;1275;25288;-81
2023/02/21 04:20:09;;;;;;;4.20;1.10;;;;;;;;;;107064;1276;22527;-78
2023/02/21 04:22:49;;;;;;;3.30;0.90;;;;;;;;;;107148;1275;22676;-79
2023/02/21 04:25:23;;;;;;;3.80;1.20;;;;;;;;;;106986;1275;25340;-78
2023/02/21 04:27:53;;;;;;;4.20;1.60;;;;;;;;;;107093;1275;22517;-78
2023/02/21 04:30:52;;;;;;;2.80;0.80;;;;;;;;;;107079;1275;24333;-81
2023/02/21 04:33:31;;;;;;;4.60;1.30;;;;;;;;;;107094;1257;24274;-78
2023/02/21 04:36:09;;;;;;;3.90;1.10;;;;;;;;;;107082;1276;23911;-77
2023/02/21 04:38:41;;;;;;;4.00;1.20;;;;;;;;;;107144;1275;25346;-78
2023/02/21 04:41:34;;;;;;;5.60;1.40;;;;;;;;;;106961;1275;25252;-79
2023/02/21 04:44:23;;;;;;;4.70;1.50;;;;;;;;;;107118;1260;22534;-82
2023/02/21 04:47:20;;;;;;;;;;;;;;;;;;;;;
2023/02/21 04:49:57;;;;;;;5.00;1.30;;;;;;;;;;107190;1276;22536;-81
2023/02/21 04:52:27;;;;;;;4.30;1.20;;;;;;;;;;107133;1275;24257;-83
2023/02/21 04:54:57;;;;;;;5.10;1.30;;;;;;;;;;107234;1266;22579;-80
2023/02/21 04:57:29;;;;;;;6.90;1.50;;;;;;;;;;107128;1275;25290;-80
2023/02/21 05:00:06;;;;;;;4.50;1.40;;;;;;;;;;107128;1276;22544;-76
2023/02/21 05:02:59;;;;;;;5.70;1.20;;;;;;;;;;107075;1276;22509;-82
2023/02/21 05:05:23;;;;;;;4.40;1.30;;;;;;;;;;107073;1263;22537;-77
2023/02/21 05:08:35;;;;;;;5.60;1.50;;;;;;;;;;107042;1275;22529;-76
2023/02/21 05:11:25;;;;;;;5.10;1.30;;;;;;;;;;107293;1275;25328;-80
2023/02/21 05:14:34;;;;;;;5.70;1.50;;;;;;;;;;107215;1257;24257;-78
2023/02/21 05:17:09;;;;;;;;;;;;;;;;;;;;;
2023/02/21 05:19:45;;;;;;;4.80;1.30;;;;;;;;;;107215;1275;24237;-78
2023/02/21 05:22:33;;;;;;;5.00;1.30;;;;;;;;;;107322;1275;22542;-81
2023/02/21 05:25:13;;;;;;;4.60;1.30;;;;;;;;;;107118;1257;24214;-83
2023/02/21 05:27:45;;;;;;;3.90;1.10;;;;;;;;;;107062;1275;22534;-82
2023/02/21 05:30:13;;;;;;;4.00;1.20;;;;;;;;;;107136;1275;25272;-76
2023/02/21 05:33:00;;;;;;;3.40;1.20;;;;;;;;;;107110;1275;24192;-83
2023/02/21 05:35:27;;;;;;;5.40;1.30;;;;;;;;;;107065;1262;22551;-80
2023/02/21 05:37:57;;;;;;;4.10;1.30;;;;;;;;;;107135;1275;23423;-77
2023/02/21 05:40:24;;;;;;;6.00;1.70;;;;;;;;;;107231;1275;25507;-80
2023/02/21 05:42:53;;;;;;;5.40;1.70;;;;;;;;;;107162;1275;25344;-78
2023/02/21 05:45:20;;;;;;;6.30;1.80;;;;;;;;;;107196;1275;22529;-78
2023/02/21 05:47:47;;;;;;;5.50;1.40;;;;;;;;;;107136;1275;25233;-78
2023/02/21 05:50:25;;;;;;;4.70;1.40;;;;;;;;;;107074;1275;22642;-82
2023/02/21 05:53:24;;;;;;;5.90;1.80;;;;;;;;;;107257;1275;22530;-79
2023/02/21 05:55:53;;;;;;;6.50;1.80;;;;;;;;;;107043;1256;22570;-76
2023/02/21 05:58:37;;;;;;;5.70;2.00;;;;;;;;;;107106;1275;22629;-79
2023/02/21 06:01:13;;;;;;;7.00;2.20;;;;;;;;;;107151;1275;23263;-78
2023/02/21 06:03:42;;;;;;;6.40;1.80;;;;;;;;;;106969;1275;22520;-76
2023/02/21 06:06:23;;;;;;;8.70;2.30;;;;;;;;;;107112;1258;25325;-78
2023/02/21 06:09:29;;;;;;;;;;;;;;;;;;;;;
2023/02/21 06:12:07;;;;;;;6.60;2.30;;;;;;;;;;107296;1275;23138;-81
2023/02/21 06:14:41;;;;;;;6.10;2.20;;;;;;;;;;107112;1275;22534;-78
2023/02/21 06:17:11;;;;;;;6.60;2.20;;;;;;;;;;107128;1257;22570;-82
2023/02/21 06:19:37;;;;;;;6.80;2.60;;;;;;;;;;107060;1275;25291;-82
2023/02/21 06:22:04;;;;;;;7.50;2.70;;;;;;;;;;107168;1275;23883;-80
2023/02/21 06:24:34;;;;;;;9.40;3.10;;;;;;;;;;107266;1272;22527;-80
2023/02/21 06:27:08;;;;;;;6.50;2.40;;;;;;;;;;107139;1269;25328;-79
2023/02/21 06:29:52;;;;;;;9.60;3.50;;;;;;;;;;107299;1267;25328;-78
2023/02/21 06:32:30;;;;;;;6.30;2.40;;;;;;;;;;107107;1275;22618;-79
2023/02/21 06:35:18;;;;;;;10.10;2.70;;;;;;;;;;107216;1275;23434;-78
2023/02/21 06:37:59;;;;;;;7.00;2.30;;;;;;;;;;107098;1256;23115;-77
2023/02/21 06:40:53;;;;;;;;;;;;;;;;;;;;;
2023/02/21 06:43:23;;;;;;;9.70;2.50;;;;;;;;;;107132;1275;22655;-82
2023/02/21 06:46:13;;;;;;;7.10;2.60;;;;;;;;;;107077;1274;24198;-80
2023/02/21 06:49:18;;;;;;;;;;;;;;;;;;;;;
2023/02/21 06:51:50;;;;;;;9.00;2.80;;;;;;;;;;107339;1274;23872;-81
2023/02/21 06:57:55;;;;;;;8.10;2.60;;;;;;;;;;107313;1252;24246;-79
2023/02/21 07:00:35;;;;;;;7.70;2.80;;;;;;;;;;107068;1274;24206;-84
2023/02/21 07:03:07;;;;;;;10.90;3.00;;;;;;;;;;107152;1275;22531;-79
2023/02/21 07:06:07;;;;;;;8.40;2.30;;;;;;;;;;107160;1274;22531;-81
2023/02/21 07:08:56;;;;;;;8.00;2.30;;;;;;;;;;107144;1256;23869;-81
2023/02/21 07:11:39;;;;;;;6.80;2.50;;;;;;;;;;106938;1274;22670;-85
2023/02/21 07:15:19;;;;;;;16.30;5.80;;;;;;;;;;107182;1274;24258;-81
2023/02/21 07:21:14;;;;;;;16.10;5.00;;;;;;;;;;106789;1280;25271;-86
2023/02/21 07:23:53;;;;;;;11.40;4.10;;;;;;;;;;106744;1281;22722;-83
2023/02/21 07:26:36;;;;;;;11.20;4.20;;;;;;;;;;106645;1281;22531;-77
2023/02/21 07:29:21;;;;;;;7.80;2.60;;;;;;;;;;106539;1263;22534;-82
2023/02/21 07:32:27;;;;;;;6.10;2.10;;;;;;;;;;106687;1280;22562;-86
2023/02/21 07:34:54;;;;;;;7.80;1.90;;;;;;;;;;106839;1276;22540;-81
2023/02/21 07:37:40;;;;;;;5.40;1.80;;;;;;;;;;106774;1277;24250;-86
2023/02/21 07:40:07;;;;;;;5.50;1.80;;;;;;;;;;107124;1281;25379;-78
2023/02/21 07:42:42;;;;;;;6.70;1.90;;;;;;;;;;106841;1280;24449;-81
2023/02/21 07:45:10;;;;;;;7.00;1.70;;;;;;;;;;106762;1280;22549;-79
2023/02/21 07:47:39;;;;;;;4.80;1.50;;;;;;;;;;106942;1280;25356;-77
2023/02/21 07:50:22;;;;;;;6.20;1.80;;;;;;;;;;106620;1264;22553;-76
2023/02/21 07:53:21;;;;;;;5.00;1.40;;;;;;;;;;106918;1276;22662;-77
2023/02/21 07:56:04;;;;;;;5.20;1.70;;;;;;;;;;106622;1281;25558;-80
2023/02/21 07:59:17;;;;;;;4.50;1.40;;;;;;;;;;106872;1254;22539;-86
2023/02/21 08:01:44;;;;;;;6.20;1.60;;;;;;;;;;106905;1275;22529;-84
2023/02/21 08:04:22;;;;;;;5.00;1.50;;;;;;;;;;107207;1275;24235;-79
2023/02/21 08:07:02;;;;;;;10.00;2.20;;;;;;;;;;107018;1275;25284;-78
2023/02/21 08:10:04;;;;;;;12.60;2.40;;;;;;;;;;107000;1267;25581;-79
2023/02/21 08:12:30;;;;;;;8.00;1.80;;;;;;;;;;106840;1275;21750;-79
2023/02/21 08:15:06;;;;;;;7.40;2.00;;;;;;;;;;107213;1269;25258;-80
2023/02/21 08:17:55;;;;;;;4.60;1.20;;;;;;;;;;107243;1267;22601;-78
2023/02/21 08:20:44;;;;;;;5.50;1.60;;;;;;;;;;106926;1257;25482;-78
2023/02/21 08:23:17;;;;;;;5.80;1.80;;;;;;;;;;107025;1269;25268;-78
2023/02/21 08:25:44;;;;;;;8.30;2.50;;;;;;;;;;106988;1269;22752;-79
2023/02/21 08:28:12;;;;;;;12.00;3.00;;;;;;;;;;107007;1268;22543;-77
2023/02/21 08:30:45;;;;;;;11.70;3.10;;;;;;;;;;106822;1270;24454;-80
2023/02/21 08:33:18;;;;;;;15.80;4.00;;;;;;;;;;107057;1273;24343;-79
2023/02/21 08:35:56;;;;;;;10.10;2.70;;;;;;;;;;107067;1267;25526;-80
2023/02/21 08:38:25;;;;;;;9.60;2.80;;;;;;;;;;107149;1267;22626;-81
2023/02/21 08:41:01;;;;;;;11.00;3.20;;;;;;;;;;107096;1256;24309;-80
2023/02/21 08:43:31;;;;;;;10.30;2.90;;;;;;;;;;107301;1269;22550;-82
2023/02/21 08:46:07;;;;;;;11.70;3.30;;;;;;;;;;106961;1267;24190;-81
2023/02/21 08:48:47;;;;;;;10.80;2.80;;;;;;;;;;107082;1266;25471;-79
2023/02/21 08:51:27;;;;;;;13.30;2.90;;;;;;;;;;107207;1256;23907;-78
2023/02/21 08:54:34;;;;;;;12.40;2.40;;;;;;;;;;107211;1267;25334;-80
2023/02/21 08:57:04;;;;;;;12.70;2.80;;;;;;;;;;107190;1273;22531;-80
2023/02/21 08:59:41;;;;;;;9.40;2.10;;;;;;;;;;107289;1254;22931;-77
2023/02/21 09:02:24;;;;;;;7.90;1.60;;;;;;;;;;107078;1267;24253;-80
2023/02/21 09:04:59;;;;;;;6.10;1.70;;;;;;;;;;107327;1270;22533;-79
2023/02/21 09:07:32;;;;;;;5.00;1.50;;;;;;;;;;106962;1267;22759;-78
2023/02/21 09:10:09;;;;;;;5.50;1.60;;;;;;;;;;107217;1251;24257;-77
2023/02/21 09:12:39;;;;;;;5.50;1.70;;;;;;;;;;107151;1267;25294;-78
2023/02/21 09:15:17;;;;;;;;;;;;;;;;;;;;;
2023/02/21 09:17:44;;;;;;;3.30;1.10;;;;;;;;;;107305;1270;22544;-77
2023/02/21 09:20:15;;;;;;;5.60;2.00;;;;;;;;;;107263;1253;22553;-79
2023/02/21 09:22:50;;;;;;;5.00;1.40;;;;;;;;;;106930;1272;24311;-80
2023/02/21 09:25:35;;;;;;;5.30;1.40;;;;;;;;;;107142;1267;22992;-81
2023/02/21 09:28:12;;;;;;;;;;;;;;;;;;;;;
2023/02/21 09:30:49;;;;;;;4.40;1.20;;;;;;;;;;107237;1255;23902;-78
2023/02/21 09:33:18;;;;;;;4.40;1.40;;;;;;;;;;107283;1270;24305;-77
2023/02/21 09:42:55;;;;;;;5.00;1.40;;;;;;;;;;104075;1292;544970;-77
2023/02/21 09:45:23;;;;;;;5.10;1.50;;;;;;;;;;106369;1285;22549;-77
2023/02/21 09:48:30;;;;;;;7.80;1.60;;;;;;;;;;106404;1285;22543;-82
2023/02/21 09:51:06;;;;;;;5.10;1.80;;;;;;;;;;107414;1273;24197;-85
2023/02/21 09:54:10;;;;;;;;;;;;;;;;;;;;;
2023/02/21 09:57:00;;;;;;;7.30;1.90;;;;;;;;;;105582;1275;2258553;-81
2023/02/21 09:59:35;;;;;;;7.00;2.00;;;;;;;;;;107099;1275;22700;-82
2023/02/21 10:02:02;;;;;;;6.40;1.70;;;;;;;;;;106995;1261;22577;-76
2023/02/21 10:04:48;;;;;;;7.10;2.10;;;;;;;;;;107136;1257;22536;-85
2023/02/21 10:07:44;;;;;;;6.70;2.00;;;;;;;;;;107170;1274;24306;-82
2023/02/21 10:10:31;;;;;;;5.30;1.80;;;;;;;;;;107172;1274;24233;-79
2023/02/21 10:13:12;;;;;;;4.80;1.70;;;;;;;;;;107056;1256;22663;-83
2023/02/21 10:15:43;;;;;;;7.80;2.40;;;;;;;;;;107071;1275;23915;-82
2023/02/21 10:18:21;;;;;;;6.60;2.10;;;;;;;;;;106834;1275;25300;-78
2023/02/21 10:21:04;;;;;;;5.30;1.70;;;;;;;;;;106975;1275;24382;-78
2023/02/21 10:24:04;;;;;;;6.10;2.00;;;;;;;;;;107252;1273;24239;-77
2023/02/21 10:26:47;;;;;;;6.10;2.00;;;;;;;;;;107176;1274;24240;-85
2023/02/21 10:29:31;;;;;;;6.50;2.20;;;;;;;;;;107237;1273;22775;-83
2023/02/21 10:32:04;;;;;;;6.30;2.60;;;;;;;;;;107170;1267;25488;-80
2023/02/21 10:34:34;;;;;;;7.70;2.60;;;;;;;;;;106795;1257;22590;-81
2023/02/21 10:37:24;;;;;;;7.80;2.60;;;;;;;;;;106713;1276;23885;-82
2023/02/21 10:40:12;;;;;;;5.60;2.10;;;;;;;;;;106785;1276;22534;-84
2023/02/21 10:43:08;;;;;;;11.90;3.40;;;;;;;;;;106910;1254;23884;-82
2023/02/21 10:45:38;;;;;;;6.70;2.30;;;;;;;;;;107255;1269;22552;-75
2023/02/21 10:48:19;;;;;;;6.30;2.10;;;;;;;;;;107191;1272;23365;-78
2023/02/21 10:51:04;;;;;;;6.70;2.80;;;;;;;;;;106995;1267;24243;-78
2023/02/21 10:53:39;;;;;;;9.20;3.10;;;;;;;;;;107118;1267;25411;-79
2023/02/21 10:56:40;;;;;;;7.80;2.20;;;;;;;;;;106982;1269;22551;-77
2023/02/21 10:59:06;;;;;;;7.60;2.50;;;;;;;;;;106948;1273;22523;-80
2023/02/21 11:01:40;;;;;;;9.70;2.50;;;;;;;;;;106891;1270;22538;-80
2023/02/21 11:04:27;;;;;;;8.30;2.90;;;;;;;;;;107005;1266;24373;-82
2023/02/21 11:07:10;;;;;;;13.00;3.70;;;;;;;;;;106930;1275;24220;-79
2023/02/21 11:09:54;;;;;;;8.20;2.80;;;;;;;;;;107155;1272;24829;-83
2023/02/21 11:12:26;;;;;;;6.10;2.20;;;;;;;;;;106864;1274;22787;-81
2023/02/21 11:15:05;;;;;;;8.60;3.10;;;;;;;;;;106690;1270;22675;-81
2023/02/21 11:17:32;;;;;;;9.60;2.70;;;;;;;;;;106898;1275;22589;-77
2023/02/21 11:20:11;;;;;;;9.70;2.80;;;;;;;;;;107060;1273;24267;-79
2023/02/21 11:22:41;;;;;;;6.80;2.60;;;;;;;;;;106981;1275;22640;-84
2023/02/21 11:25:16;;;;;;;6.10;1.80;;;;;;;;;;107027;1257;22537;-80
2023/02/21 11:27:46;;;;;;;7.20;2.40;;;;;;;;;;106993;1269;22552;-78
2023/02/21 11:30:35;;;;;;;5.90;2.10;;;;;;;;;;107068;1272;23082;-78
2023/02/21 11:33:06;;;;;;;10.10;5.40;;;;;;;;;;106979;1272;22649;-77
2023/02/21 11:35:36;;;;;;;8.00;2.40;;;;;;;;;;107029;1272;24358;-77
2023/02/21 11:38:05;;;;;;;7.80;2.60;;;;;;;;;;106910;1269;22540;-77
2023/02/21 11:40:39;;;;;;;6.10;2.10;;;;;;;;;;107062;1272;22552;-82
2023/02/21 11:44:02;;;;;;;9.20;2.90;;;;;;;;;;107163;1275;22659;-80
2023/02/21 11:46:04;;;;;;;10.10;2.40;;;;;;;;;;107314;1263;22545;-78
2023/02/21 11:48:54;;;;;;;7.60;2.40;;;;;;;;;;107011;1275;25499;-80
2023/02/21 11:51:28;;;;;;;9.80;3.30;;;;;;;;;;107379;1275;25331;-78
2023/02/21 11:53:59;;;;;;;7.00;2.60;;;;;;;;;;107193;1263;22536;-79
2023/02/21 11:56:29;;;;;;;7.00;2.50;;;;;;;;;;107035;1265;22485;-82
2023/02/21 11:59:02;;;;;;;8.40;3.40;;;;;;;;;;106979;1272;25236;-82
2023/02/21 12:02:03;;;;;;;8.70;2.90;;;;;;;;;;107004;1270;22558;-79
2023/02/21 12:04:46;;;;;;;10.10;3.30;;;;;;;;;;106502;1263;22539;-78
2023/02/21 12:07:29;;;;;;;8.30;3.20;;;;;;;;;;106371;1277;25444;-79
2023/02/21 12:10:14;;;;;;;9.90;3.10;;;;;;;;;;106350;1281;25240;-82
2023/02/21 12:13:26;;;;;;;8.50;2.90;;;;;;;;;;106428;1280;24215;-82
2023/02/21 12:16:11;;;;;;;9.10;3.10;;;;;;;;;;105842;1274;25347;-79
2023/02/21 12:19:23;;;;;;;8.30;2.70;;;;;;;;;;105958;1283;22607;-78
2023/02/21 12:21:50;;;;;;;7.90;3.60;;;;;;;;;;106026;1289;22828;-84
2023/02/21 12:24:40;;;;;;;12.20;4.20;;;;;;;;;;105941;1289;24296;-76
2023/02/21 12:40:17;;;;;;;12.70;5.00;;;;;;;;;;103931;1292;545337;-78
2023/02/21 12:43:03;;;;;;;10.90;4.80;;;;;;;;;;106366;1285;22565;-80
2023/02/21 12:45:39;;;;;;;11.40;4.00;;;;;;;;;;106067;1282;22635;-79
2023/02/21 12:48:14;;;;;;;11.20;3.90;;;;;;;;;;106203;1282;22547;-79
2023/02/21 12:50:51;;;;;;;12.00;4.70;;;;;;;;;;106040;1279;22553;-77
2023/02/21 12:53:23;;;;;;;11.10;4.10;;;;;;;;;;104347;1282;2362161;-77
2023/02/21 12:55:53;;;;;;;13.40;5.10;;;;;;;;;;106221;1281;22605;-79
2023/02/21 12:58:23;;;;;;;11.10;4.00;;;;;;;;;;106419;1286;22553;-80
2023/02/21 13:00:56;;;;;;;21.30;5.90;;;;;;;;;;106635;1266;25373;-78
2023/02/21 13:03:23;;;;;;;14.00;3.90;;;;;;;;;;107007;1270;22530;-78
2023/02/21 13:06:05;;;;;;;12.40;4.40;;;;;;;;;;107031;1272;22531;-82
2023/02/21 13:09:07;;;;;;;16.20;5.30;;;;;;;;;;107028;1270;22534;-78
2023/02/21 13:11:52;;;;;;;14.70;5.80;;;;;;;;;;106706;1278;22580;-85
2023/02/21 13:15:01;;;;;;;17.10;6.40;;;;;;;;;;106363;1284;22776;-82
2023/02/21 13:18:01;;;;;;;13.80;5.00;;;;;;;;;;106295;1281;25383;-83
2023/02/21 13:20:59;;;;;;;13.60;4.90;;;;;;;;;;106374;1281;23155;-81
2023/02/21 13:23:48;;;;;;;9.70;4.30;;;;;;;;;;106269;1287;24278;-81
2023/02/21 13:26:55;;;;;;;12.00;4.90;;;;;;;;;;106322;1286;22553;-79
2023/02/21 13:29:42;;;;;;;10.70;3.20;;;;;;;;;;106240;1288;24283;-80
2023/02/21 13:32:34;;;;;;;10.50;4.20;;;;;;;;;;106304;1271;22848;-81
2023/02/21 13:35:20;;;;;;;14.30;4.40;;;;;;;;;;106205;1283;23436;-79
2023/02/21 13:37:52;;;;;;;15.90;4.70;;;;;;;;;;106218;1284;24244;-77
2023/02/21 13:40:49;;;;;;;12.60;3.80;;;;;;;;;;106299;1272;25342;-84
2023/02/21 13:43:49;;;;;;;17.00;4.80;;;;;;;;;;105830;1285;22536;-82
2023/02/21 13:46:42;;;;;;;13.00;4.70;;;;;;;;;;106163;1291;22632;-80
2023/02/21 13:50:14;;;;;;;13.80;5.30;;;;;;;;;;106068;1286;22560;-81
2023/02/21 13:52:39;;;;;;;11.80;3.90;;;;;;;;;;105583;1277;22512;-81
2023/02/21 13:55:25;;;;;;;10.70;3.70;;;;;;;;;;106533;1286;25372;-80
2023/02/21 13:58:17;;;;;;;12.80;4.50;;;;;;;;;;106168;1280;22573;-82
2023/02/21 14:00:58;;;;;;;13.20;4.70;;;;;;;;;;106128;1262;22542;-80
2023/02/21 14:04:21;;;;;;;11.10;4.50;;;;;;;;;;106860;1284;24217;-83
2023/02/21 14:06:54;;;;;;;13.60;5.20;;;;;;;;;;106557;1281;26538;-86
2023/02/21 14:09:57;;;;;;;9.80;3.60;;;;;;;;;;106259;1278;24281;-86
2023/02/21 14:12:58;;;;;;;12.80;5.30;;;;;;;;;;106527;1282;22541;-80
2023/02/21 14:16:04;;;;;;;11.00;4.80;;;;;;;;;;106538;1281;25290;-82
2023/02/21 14:18:59;;;;;;;14.70;5.80;;;;;;;;;;103860;1297;544825;-85
2023/02/21 14:21:47;;;;;;;10.60;4.30;;;;;;;;;;106223;1284;23213;-80
2023/02/21 14:24:26;;;;;;;12.50;4.50;;;;;;;;;;106240;1283;22556;-83
2023/02/21 14:27:11;;;;;;;11.50;4.50;;;;;;;;;;106204;1288;22543;-83
2023/02/21 14:29:50;;;;;;;10.50;3.70;;;;;;;;;;106040;1290;22620;-80
2023/02/21 14:32:26;;;;;;;16.70;6.00;;;;;;;;;;102980;1267;5395400;-80
2023/02/21 14:34:57;;;;;;;9.90;3.60;;;;;;;;;;107020;1276;22536;-82
2023/02/21 14:37:39;;;;;;;7.70;3.40;;;;;;;;;;107001;1276;22537;-86
2023/02/21 14:40:09;;;;;;;8.70;3.30;;;;;;;;;;106951;1257;22545;-80
2023/02/21 14:43:13;;;;;;;9.50;4.00;;;;;;;;;;107096;1272;22534;-83
2023/02/21 14:45:49;;;;;;;11.20;4.90;;;;;;;;;;107015;1275;24209;-82
2023/02/21 14:49:00;;;;;;;10.10;4.20;;;;;;;;;;107142;1253;22530;-82
2023/02/21 14:51:45;;;;;;;9.80;3.60;;;;;;;;;;107179;1276;25369;-81
2023/02/21 14:54:46;;;;;;;9.50;3.80;;;;;;;;;;107077;1276;25285;-84
2023/02/21 14:58:03;;;;;;;11.30;4.90;;;;;;;;;;106979;1277;22504;-84
2023/02/21 15:01:00;;;;;;;19.60;9.30;;;;;;;;;;106932;1277;24243;-81
2023/02/21 15:03:35;;;;;;;21.20;8.80;;;;;;;;;;106903;1278;22535;-80
2023/02/21 15:06:19;;;;;;;27.00;10.80;;;;;;;;;;106923;1278;24495;-81
2023/02/21 15:08:55;;;;;;;62.00;23.30;;;;;;;;;;106760;1257;22546;-81
2023/02/21 15:11:43;;;;;;;44.10;16.10;;;;;;;;;;106905;1270;22666;-81
2023/02/21 15:14:28;;;;;;;43.00;16.80;;;;;;;;;;107080;1273;22788;-80
2023/02/21 15:17:14;;;;;;;53.30;19.90;;;;;;;;;;107059;1271;22549;-81
2023/02/21 15:20:04;;;;;;;41.40;14.80;;;;;;;;;;106887;1260;22549;-79
2023/02/21 15:22:40;;;;;;;28.10;9.10;;;;;;;;;;107074;1270;25465;-81
2023/02/21 15:25:14;;;;;;;15.80;6.00;;;;;;;;;;107022;1277;22581;-77
2023/02/21 15:27:48;;;;;;;16.70;4.70;;;;;;;;;;106843;1278;24300;-81
2023/02/21 15:30:23;;;;;;;16.80;6.20;;;;;;;;;;106978;1271;22542;-78
2023/02/21 15:33:08;;;;;;;24.40;6.80;;;;;;;;;;106881;1270;25354;-76
2023/02/21 15:35:41;;;;;;;22.60;5.20;;;;;;;;;;107045;1277;24266;-77
2023/02/21 15:38:14;;;;;;;14.30;5.50;;;;;;;;;;106941;1275;25395;-76
2023/02/21 15:40:41;;;;;;;14.10;5.50;;;;;;;;;;106836;1260;25349;-78
2023/02/21 15:43:13;;;;;;;15.30;5.70;;;;;;;;;;106870;1278;22539;-78
2023/02/21 15:45:48;;;;;;;11.30;4.30;;;;;;;;;;106836;1277;22536;-79
2023/02/21 15:48:15;;;;;;;16.50;7.20;;;;;;;;;;106653;1271;25591;-78
2023/02/21 15:50:44;;;;;;;18.40;7.00;;;;;;;;;;106745;1272;25584;-77
2023/02/21 15:53:16;;;;;;;16.10;7.00;;;;;;;;;;106857;1275;25057;-79
2023/02/21 15:55:44;;;;;;;21.40;9.60;;;;;;;;;;106825;1272;25294;-78
2023/02/21 15:58:16;;;;;;;19.80;8.50;;;;;;;;;;106564;1272;23923;-76
2023/02/21 16:00:45;;;;;;;17.50;6.80;;;;;;;;;;106650;1259;22549;-81
2023/02/21 16:03:47;;;;;;;16.40;6.00;;;;;;;;;;106838;1277;22593;-78
2023/02/21 16:06:22;;;;;;;15.60;6.00;;;;;;;;;;106896;1277;22543;-78
2023/02/21 16:08:57;;;;;;;19.20;6.00;;;;;;;;;;107022;1274;24242;-78
2023/02/21 16:11:54;;;;;;;16.60;5.80;;;;;;;;;;106743;1259;25363;-80
2023/02/21 16:14:58;;;;;;;13.70;5.20;;;;;;;;;;106863;1273;24677;-77
2023/02/21 16:17:59;;;;;;;;;;;;;;;;;;;;;
2023/02/21 16:20:41;;;;;;;13.30;5.30;;;;;;;;;;106864;1262;25400;-78
2023/02/21 16:23:27;;;;;;;21.20;7.60;;;;;;;;;;106729;1276;24196;-77
2023/02/21 16:26:26;;;;;;;13.90;5.60;;;;;;;;;;106690;1271;22556;-79
2023/02/21 16:28:59;;;;;;;15.20;7.00;;;;;;;;;;107009;1275;25390;-81
2023/02/21 16:31:28;;;;;;;15.00;5.20;;;;;;;;;;106982;1259;25284;-78
2023/02/21 16:33:55;;;;;;;14.90;5.50;;;;;;;;;;106904;1277;22540;-80
2023/02/21 16:36:24;;;;;;;9.20;4.20;;;;;;;;;;106931;1277;26047;-76
2023/02/21 16:38:57;;;;;;;19.10;8.50;;;;;;;;;;106883;1277;22539;-80
2023/02/21 16:41:34;;;;;;;14.90;6.70;;;;;;;;;;106831;1269;25295;-80
2023/02/21 16:44:49;;;;;;;20.40;9.30;;;;;;;;;;106841;1277;22566;-75
2023/02/21 16:46:58;;;;;;;16.60;7.10;;;;;;;;;;106845;1277;22630;-80
2023/02/21 16:49:33;;;;;;;12.80;5.80;;;;;;;;;;106814;1277;22536;-83
2023/02/21 16:52:13;;;;;;;15.40;6.00;;;;;;;;;;106835;1259;22541;-78
2023/02/21 16:54:51;;;;;;;15.40;7.60;;;;;;;;;;106852;1277;24194;-79
2023/02/21 16:57:20;;;;;;;12.80;6.40;;;;;;;;;;106834;1277;22586;-81
2023/02/21 16:59:52;;;;;;;15.30;5.60;;;;;;;;;;106862;1268;25248;-80
2023/02/21 17:02:19;;;;;;;11.90;3.90;;;;;;;;;;106793;1277;22540;-77
2023/02/21 17:04:45;;;;;;;17.50;6.00;;;;;;;;;;106823;1277;22536;-82
2023/02/21 17:07:15;;;;;;;12.00;3.90;;;;;;;;;;106832;1277;22545;-81
2023/02/21 17:09:42;;;;;;;34.10;9.90;;;;;;;;;;106807;1277;22531;-79
2023/02/21 17:12:11;;;;;;;7.70;3.00;;;;;;;;;;106777;1267;22533;-78
2023/02/21 17:14:38;;;;;;;16.50;4.70;;;;;;;;;;106786;1277;22556;-78
2023/02/21 17:17:08;;;;;;;35.70;11.10;;;;;;;;;;106803;1277;24194;-78
2023/02/21 17:19:38;;;;;;;13.10;4.80;;;;;;;;;;106917;1277;24437;-78
2023/02/21 17:22:07;;;;;;;15.60;4.70;;;;;;;;;;106870;1261;22561;-76
2023/02/21 17:24:39;;;;;;;15.60;5.40;;;;;;;;;;106854;1271;22656;-82
2023/02/21 17:27:17;;;;;;;18.00;5.90;;;;;;;;;;106786;1274;22673;-78
2023/02/21 17:29:50;;;;;;;16.30;4.40;;;;;;;;;;106687;1274;25371;-76
2023/02/21 17:32:39;;;;;;;59.10;13.40;;;;;;;;;;106850;1258;22582;-77
2023/02/21 17:35:07;;;;;;;87.20;24.40;;;;;;;;;;106840;1275;22676;-77
2023/02/21 17:37:41;;;;;;;36.20;12.20;;;;;;;;;;106807;1276;22535;-75
2023/02/21 17:40:14;;;;;;;48.00;16.00;;;;;;;;;;107045;1274;25531;-79
2023/02/21 17:42:44;;;;;;;21.80;6.70;;;;;;;;;;106946;1262;24226;-77
2023/02/21 17:45:34;;;;;;;25.40;9.80;;;;;;;;;;106873;1269;24254;-77
2023/02/21 17:48:05;;;;;;;19.40;7.50;;;;;;;;;;106647;1273;25473;-78
2023/02/21 17:50:37;;;;;;;17.00;6.80;;;;;;;;;;106838;1270;23884;-76
2023/02/21 17:53:11;;;;;;;12.30;3.90;;;;;;;;;;106847;1275;25334;-77
2023/02/21 17:55:58;;;;;;;10.90;3.80;;;;;;;;;;106820;1272;22608;-79
2023/02/21 17:58:30;;;;;;;13.00;4.70;;;;;;;;;;110277;1276;22423;-77
2023/02/21 18:01:04;;;;;;;14.00;5.10;;;;;;;;;;110555;1276;22101;-77
2023/02/21 18:03:31;;;;;;;16.20;4.90;;;;;;;;;;110272;1260;22325;-77
2023/02/21 18:06:01;;;;;;;14.60;4.00;;;;;;;;;;110328;1276;22138;-81
2023/02/21 18:08:33;;;;;;;14.90;4.50;;;;;;;;;;110266;1272;22405;-76
2023/02/21 18:11:15;;;;;;;13.50;4.40;;;;;;;;;;110436;1273;22418;-76
2023/02/21 18:13:49;;;;;;;17.60;6.20;;;;;;;;;;110347;1259;22394;-76
2023/02/21 18:16:25;;;;;;;21.90;6.70;;;;;;;;;;110256;1276;22158;-77
2023/02/21 18:18:52;;;;;;;10.30;3.10;;;;;;;;;;110319;1278;22311;-76
2023/02/21 18:21:29;;;;;;;19.60;6.90;;;;;;;;;;110131;1277;22400;-77
2023/02/21 18:23:56;;;;;;;14.30;4.40;;;;;;;;;;110298;1260;22398;-76
2023/02/21 18:26:29;;;;;;;15.40;4.40;;;;;;;;;;110229;1278;21724;-77
2023/02/21 18:28:59;;;;;;;13.60;4.30;;;;;;;;;;110252;1272;22118;-76
2023/02/21 18:31:29;;;;;;;16.90;5.40;;;;;;;;;;110098;1278;22482;-76
2023/02/21 18:34:02;;;;;;;8.40;2.50;;;;;;;;;;110120;1262;22154;-77
2023/02/21 18:36:32;;;;;;;9.80;2.80;;;;;;;;;;110433;1277;22825;-76
2023/02/21 18:39:00;;;;;;;19.30;5.90;;;;;;;;;;110330;1277;22126;-76
2023/02/21 18:41:31;;;;;;;24.90;6.60;;;;;;;;;;110274;1277;22413;-76
2023/02/21 18:44:04;;;;;;;16.10;4.60;;;;;;;;;;110431;1259;22160;-76
2023/02/21 18:46:47;;;;;;;16.30;4.60;;;;;;;;;;110460;1277;22180;-77